Time;durP1;ratioP1;P1;durP2;ratioP2;P2;SDS_P1;SDS_P2;PMS_P1;PMS_P2;Temp;Humidity;BMP_temperature;BMP_pressure;BME280_temperature;BME280_humidity;BME280_pressure;Samples;Min_cycle;Max_cycle;Signal;HPM_P1;HPM_P2
2020/12/13 00:00:49;;;;;;;17.17;15.47;;;;;;;;;;4976658;28;20261;-82
2020/12/13 00:03:16;;;;;;;16.40;14.80;;;;;;;;;;4976646;28;20635;-81
2020/12/13 00:05:42;;;;;;;16.83;15.03;;;;;;;;;;4976679;28;20177;-82
2020/12/13 00:08:08;;;;;;;19.20;15.83;;;;;;;;;;4975165;28;20201;-81
2020/12/13 00:10:34;;;;;;;17.70;15.83;;;;;;;;;;4976438;28;20189;-82
2020/12/13 00:13:00;;;;;;;17.83;16.00;;;;;;;;;;4975447;28;20180;-81
2020/12/13 00:15:26;;;;;;;19.10;16.47;;;;;;;;;;4976495;28;20179;-81
2020/12/13 00:17:52;;;;;;;20.13;16.87;;;;;;;;;;4976605;28;20695;-81
2020/12/13 00:20:19;;;;;;;17.80;15.93;;;;;;;;;;4976369;28;20212;-81
2020/12/13 00:22:46;;;;;;;20.73;17.50;;;;;;;;;;4976443;28;20552;-82
2020/12/13 00:25:12;;;;;;;19.03;17.00;;;;;;;;;;4976011;28;20263;-81
2020/12/13 00:27:40;;;;;;;19.83;17.67;;;;;;;;;;4970589;28;20240;-82
2020/12/13 00:30:06;;;;;;;18.80;16.20;;;;;;;;;;4968617;28;20173;-82
2020/12/13 00:32:32;;;;;;;20.23;17.43;;;;;;;;;;4976206;28;20551;-82
2020/12/13 00:34:58;;;;;;;19.53;17.33;;;;;;;;;;4976016;28;20219;-81
2020/12/13 00:37:25;;;;;;;19.57;17.00;;;;;;;;;;4976127;28;20235;-81
2020/12/13 00:39:52;;;;;;;18.53;15.33;;;;;;;;;;4976101;28;20204;-81
2020/12/13 00:42:18;;;;;;;17.50;15.47;;;;;;;;;;4976748;28;20231;-82
2020/12/13 00:44:45;;;;;;;18.13;15.53;;;;;;;;;;4974651;28;20521;-82
2020/12/13 00:47:11;;;;;;;16.83;15.13;;;;;;;;;;4965122;28;20209;-83
2020/12/13 00:49:37;;;;;;;17.43;15.47;;;;;;;;;;4975088;28;20197;-82
2020/12/13 00:52:04;;;;;;;17.20;15.57;;;;;;;;;;4976154;28;20181;-82
2020/12/13 00:54:30;;;;;;;16.23;14.70;;;;;;;;;;4976333;28;20635;-82
2020/12/13 00:56:56;;;;;;;16.73;15.00;;;;;;;;;;4974740;28;20232;-82
2020/12/13 00:59:23;;;;;;;16.40;14.70;;;;;;;;;;4975977;28;20200;-81
2020/12/13 01:01:49;;;;;;;17.93;16.07;;;;;;;;;;4975973;28;20179;-81
2020/12/13 01:04:15;;;;;;;16.60;14.77;;;;;;;;;;4976046;28;20170;-81
2020/12/13 01:06:41;;;;;;;17.23;15.50;;;;;;;;;;4975942;28;20184;-82
2020/12/13 01:09:08;;;;;;;16.33;14.40;;;;;;;;;;4976019;28;20200;-81
2020/12/13 01:11:34;;;;;;;17.03;15.33;;;;;;;;;;4976098;28;20520;-82
2020/12/13 01:14:01;;;;;;;17.07;15.27;;;;;;;;;;4975621;28;20339;-82
2020/12/13 01:16:27;;;;;;;19.40;16.40;;;;;;;;;;4974311;28;20204;-81
2020/12/13 01:18:54;;;;;;;17.83;15.93;;;;;;;;;;4974170;28;20232;-82
2020/12/13 01:21:20;;;;;;;20.37;17.30;;;;;;;;;;4975296;28;20214;-82
2020/12/13 01:23:46;;;;;;;23.13;17.70;;;;;;;;;;4975548;28;20191;-82
2020/12/13 01:26:24;;;;;;;24.13;19.03;;;;;;;;;;4974655;28;20257;-81
2020/12/13 01:28:50;;;;;;;20.87;17.67;;;;;;;;;;4975765;28;20201;-82
2020/12/13 01:31:17;;;;;;;20.30;17.57;;;;;;;;;;4976320;28;20179;-82
2020/12/13 01:33:47;;;;;;;21.87;17.53;;;;;;;;;;4976051;28;20240;-82
2020/12/13 01:36:14;;;;;;;21.03;17.17;;;;;;;;;;4967975;28;20197;-82
2020/12/13 01:38:41;;;;;;;20.10;18.03;;;;;;;;;;4968783;28;20204;-82
2020/12/13 01:41:07;;;;;;;20.20;17.40;;;;;;;;;;4974378;28;20192;-82
2020/12/13 01:43:33;;;;;;;18.43;16.33;;;;;;;;;;4975719;28;20200;-82
2020/12/13 01:46:00;;;;;;;20.07;17.97;;;;;;;;;;4966991;28;20182;-83
2020/12/13 01:48:27;;;;;;;19.20;17.20;;;;;;;;;;4975398;28;20197;-82
2020/12/13 01:52:37;;;;;;;19.53;17.43;;;;;;;;;;4975524;28;20188;-82
2020/12/13 01:53:49;;;;;;;18.73;16.83;;;;;;;;;;4970805;28;20613;-82
2020/12/13 01:56:16;;;;;;;19.40;17.03;;;;;;;;;;4975299;28;20202;-82
2020/12/13 01:58:46;;;;;;;20.43;17.63;;;;;;;;;;4976408;28;20197;-82
2020/12/13 02:01:12;;;;;;;18.70;16.80;;;;;;;;;;4979107;28;20171;-82
2020/12/13 02:03:45;;;;;;;17.60;15.93;;;;;;;;;;4979170;28;20550;-82
2020/12/13 02:06:15;;;;;;;17.73;15.87;;;;;;;;;;4979631;28;20214;-83
2020/12/13 02:08:41;;;;;;;17.07;15.43;;;;;;;;;;4981921;28;20206;-83
2020/12/13 02:11:08;;;;;;;16.67;14.87;;;;;;;;;;4982268;28;20185;-83
2020/12/13 02:13:34;;;;;;;16.47;14.97;;;;;;;;;;4982290;28;20183;-83
2020/12/13 02:16:00;;;;;;;16.43;14.87;;;;;;;;;;4980159;28;20600;-83
2020/12/13 02:18:29;;;;;;;16.00;14.50;;;;;;;;;;4980935;28;20328;-83
2020/12/13 02:20:56;;;;;;;16.30;14.70;;;;;;;;;;4979669;28;20190;-83
2020/12/13 02:23:23;;;;;;;17.30;15.60;;;;;;;;;;4981052;28;20392;-82
2020/12/13 02:25:50;;;;;;;16.87;15.23;;;;;;;;;;4980471;28;20178;-82
2020/12/13 02:28:16;;;;;;;17.73;15.93;;;;;;;;;;4980351;28;20204;-82
2020/12/13 02:30:42;;;;;;;18.43;16.63;;;;;;;;;;4980239;28;20177;-82
2020/12/13 02:33:09;;;;;;;19.80;17.03;;;;;;;;;;4980865;28;20188;-83
2020/12/13 02:35:35;;;;;;;18.27;16.47;;;;;;;;;;4980462;28;20169;-82
2020/12/13 02:38:01;;;;;;;17.80;16.03;;;;;;;;;;4980047;28;20209;-83
2020/12/13 02:40:27;;;;;;;18.03;16.27;;;;;;;;;;4979403;28;20184;-82
2020/12/13 02:42:53;;;;;;;17.10;15.50;;;;;;;;;;4966676;28;20176;-82
2020/12/13 02:45:19;;;;;;;18.10;16.27;;;;;;;;;;4972614;28;20657;-82
2020/12/13 02:47:45;;;;;;;21.50;16.20;;;;;;;;;;4976843;28;20213;-82
2020/12/13 02:50:12;;;;;;;18.70;16.80;;;;;;;;;;4979832;28;20211;-82
2020/12/13 02:52:38;;;;;;;17.03;15.30;;;;;;;;;;4979809;28;20264;-82
2020/12/13 02:55:04;;;;;;;17.43;15.73;;;;;;;;;;4960814;28;20217;-81
2020/12/13 02:57:30;;;;;;;16.13;14.53;;;;;;;;;;4954313;28;20228;-82
2020/12/13 02:59:56;;;;;;;14.63;13.23;;;;;;;;;;4973855;28;20177;-81
2020/12/13 03:02:23;;;;;;;14.97;13.60;;;;;;;;;;4977375;28;20664;-82
2020/12/13 03:04:49;;;;;;;13.80;12.60;;;;;;;;;;4978255;28;20185;-82
2020/12/13 03:07:15;;;;;;;13.47;12.37;;;;;;;;;;4978242;28;20181;-82
2020/12/13 03:09:42;;;;;;;13.37;11.97;;;;;;;;;;4978504;28;20260;-81
2020/12/13 03:12:08;;;;;;;14.47;12.70;;;;;;;;;;4978317;28;20173;-82
2020/12/13 03:14:34;;;;;;;12.40;11.10;;;;;;;;;;4978375;28;20311;-82
2020/12/13 03:17:00;;;;;;;12.13;11.10;;;;;;;;;;4978689;28;20204;-82
2020/12/13 03:19:26;;;;;;;11.77;10.63;;;;;;;;;;4978459;28;20197;-82
2020/12/13 03:21:52;;;;;;;11.73;10.70;;;;;;;;;;4978846;28;20193;-82
2020/12/13 03:24:18;;;;;;;10.77;9.83;;;;;;;;;;4976997;28;20184;-82
2020/12/13 03:26:44;;;;;;;10.07;9.27;;;;;;;;;;4962453;28;20196;-82
2020/12/13 03:29:11;;;;;;;10.83;9.73;;;;;;;;;;4949650;28;20205;-81
2020/12/13 03:31:37;;;;;;;9.97;9.07;;;;;;;;;;4961459;28;20188;-83
2020/12/13 03:34:03;;;;;;;10.30;9.40;;;;;;;;;;4977993;28;20767;-82
2020/12/13 03:36:30;;;;;;;9.97;9.17;;;;;;;;;;4976994;28;20278;-81
2020/12/13 03:38:56;;;;;;;9.03;8.20;;;;;;;;;;4978136;28;20209;-82
2020/12/13 03:41:22;;;;;;;8.20;7.60;;;;;;;;;;4977974;28;20203;-82
2020/12/13 03:43:48;;;;;;;8.93;8.23;;;;;;;;;;4976162;28;20177;-81
2020/12/13 03:46:14;;;;;;;8.67;7.97;;;;;;;;;;4963677;28;20641;-82
2020/12/13 03:48:40;;;;;;;8.73;7.97;;;;;;;;;;4958729;28;20197;-82
2020/12/13 03:51:07;;;;;;;7.50;7.00;;;;;;;;;;4975186;28;20180;-82
2020/12/13 03:53:33;;;;;;;6.90;6.40;;;;;;;;;;4977931;28;20514;-82
2020/12/13 03:56:00;;;;;;;6.83;6.23;;;;;;;;;;4977865;28;20188;-82
2020/12/13 03:58:25;;;;;;;7.07;6.47;;;;;;;;;;4977483;28;20193;-82
2020/12/13 04:00:52;;;;;;;6.57;6.07;;;;;;;;;;4976100;28;20659;-82
2020/12/13 04:03:18;;;;;;;5.77;5.30;;;;;;;;;;4975640;28;20568;-81
2020/12/13 04:05:44;;;;;;;5.90;5.40;;;;;;;;;;4977797;28;20574;-82
2020/12/13 04:08:10;;;;;;;6.37;5.87;;;;;;;;;;4977379;28;20259;-82
2020/12/13 04:10:37;;;;;;;6.40;5.90;;;;;;;;;;4977654;28;20176;-81
2020/12/13 04:13:03;;;;;;;5.93;5.43;;;;;;;;;;4977073;28;20200;-82
2020/12/13 04:15:29;;;;;;;5.23;4.83;;;;;;;;;;4975587;28;20637;-82
2020/12/13 04:17:55;;;;;;;5.70;5.30;;;;;;;;;;4977125;28;20212;-82
2020/12/13 04:20:21;;;;;;;5.50;5.00;;;;;;;;;;4976300;28;20731;-82
2020/12/13 04:22:48;;;;;;;5.20;4.80;;;;;;;;;;4977311;28;20584;-82
2020/12/13 04:25:14;;;;;;;5.20;4.80;;;;;;;;;;4977084;28;20184;-81
2020/12/13 04:27:40;;;;;;;5.17;4.77;;;;;;;;;;4977233;28;20201;-83
2020/12/13 04:30:06;;;;;;;5.23;4.83;;;;;;;;;;4976529;28;20545;-81
2020/12/13 04:32:33;;;;;;;4.77;4.47;;;;;;;;;;4976799;28;20185;-81
2020/12/13 04:34:59;;;;;;;5.20;4.80;;;;;;;;;;4975551;28;20184;-81
2020/12/13 04:37:25;;;;;;;5.30;4.90;;;;;;;;;;4976472;28;20285;-81
2020/12/13 04:39:52;;;;;;;5.00;4.60;;;;;;;;;;4977061;28;20174;-82
2020/12/13 04:42:18;;;;;;;4.53;4.20;;;;;;;;;;4961093;28;20253;-82
2020/12/13 04:44:46;;;;;;;3.90;3.60;;;;;;;;;;4975008;28;20196;-81
2020/12/13 04:47:15;;;;;;;3.90;3.57;;;;;;;;;;4968510;28;20517;-82
2020/12/13 04:49:43;;;;;;;4.20;3.90;;;;;;;;;;4974945;28;20259;-82
2020/12/13 04:52:10;;;;;;;4.13;3.73;;;;;;;;;;4976430;28;20180;-81
2020/12/13 04:54:37;;;;;;;4.37;4.07;;;;;;;;;;4975596;28;20170;-81
2020/12/13 04:57:04;;;;;;;4.00;3.70;;;;;;;;;;4976226;28;20202;-82
2020/12/13 04:59:31;;;;;;;4.57;4.20;;;;;;;;;;4975804;28;20204;-81
2020/12/13 05:01:58;;;;;;;3.57;3.37;;;;;;;;;;4959199;28;20227;-81
2020/12/13 05:04:24;;;;;;;4.80;4.40;;;;;;;;;;4954914;28;20172;-81
2020/12/13 05:06:51;;;;;;;3.53;3.30;;;;;;;;;;4953370;28;20189;-82
2020/12/13 05:09:18;;;;;;;3.93;3.63;;;;;;;;;;4962214;28;20196;-82
2020/12/13 05:11:45;;;;;;;4.10;3.80;;;;;;;;;;4974641;28;20270;-82
2020/12/13 05:14:11;;;;;;;3.50;3.20;;;;;;;;;;4975337;28;20224;-82
2020/12/13 05:16:37;;;;;;;6.30;3.87;;;;;;;;;;4975234;28;20200;-81
2020/12/13 05:19:07;;;;;;;3.90;3.50;;;;;;;;;;4975892;28;20193;-82
2020/12/13 05:21:35;;;;;;;3.57;3.27;;;;;;;;;;4975434;28;20196;-82
2020/12/13 05:24:05;;;;;;;3.33;3.13;;;;;;;;;;4974349;28;20169;-81
2020/12/13 05:26:32;;;;;;;3.33;3.03;;;;;;;;;;4975352;28;20722;-81
2020/12/13 05:28:59;;;;;;;3.37;3.10;;;;;;;;;;4975402;28;20213;-81
2020/12/13 05:31:27;;;;;;;3.20;3.00;;;;;;;;;;4974240;28;20184;-81
2020/12/13 05:34:02;;;;;;;3.73;3.43;;;;;;;;;;4979419;28;20172;-81
2020/12/13 05:36:31;;;;;;;3.60;3.40;;;;;;;;;;4979618;28;20603;-81
2020/12/13 05:38:58;;;;;;;3.70;3.43;;;;;;;;;;4959938;28;20204;-81
2020/12/13 05:41:29;;;;;;;3.43;3.23;;;;;;;;;;4967315;28;20173;-81
2020/12/13 05:47:11;;;;;;;3.90;3.60;;;;;;;;;;4935063;28;20190;-81
2020/12/13 05:52:15;;;;;;;4.00;3.70;;;;;;;;;;4979697;28;20178;-81
2020/12/13 05:54:48;;;;;;;4.47;4.07;;;;;;;;;;4979430;28;20253;-82
2020/12/13 05:57:16;;;;;;;4.30;4.00;;;;;;;;;;4979220;28;20207;-81
2020/12/13 05:59:43;;;;;;;4.30;4.00;;;;;;;;;;4979131;28;20196;-80
2020/12/13 06:02:11;;;;;;;4.30;4.00;;;;;;;;;;4979494;28;20169;-81
2020/12/13 06:04:41;;;;;;;4.93;4.53;;;;;;;;;;4976918;28;20228;-81
2020/12/13 06:07:10;;;;;;;4.70;4.40;;;;;;;;;;4962571;28;20181;-81
2020/12/13 06:09:37;;;;;;;5.03;4.20;;;;;;;;;;4960317;28;20193;-80
2020/12/13 06:12:08;;;;;;;4.77;4.40;;;;;;;;;;4963891;28;20639;-82
2020/12/13 06:14:37;;;;;;;4.30;4.00;;;;;;;;;;4970970;28;20189;-81
2020/12/13 06:17:03;;;;;;;4.33;4.03;;;;;;;;;;4959583;28;20253;-81
2020/12/13 06:19:30;;;;;;;4.83;4.43;;;;;;;;;;4961137;28;20200;-80
2020/12/13 06:21:58;;;;;;;4.60;4.30;;;;;;;;;;4960581;28;20546;-81
2020/12/13 06:24:24;;;;;;;4.57;4.27;;;;;;;;;;4955831;28;20537;-81
2020/12/13 06:26:51;;;;;;;4.60;4.30;;;;;;;;;;4959594;28;20177;-81
2020/12/13 06:29:21;;;;;;;5.30;4.90;;;;;;;;;;4960186;28;20291;-82
2020/12/13 06:31:48;;;;;;;5.20;4.80;;;;;;;;;;4957360;28;20532;-82
2020/12/13 06:34:15;;;;;;;4.80;4.50;;;;;;;;;;4959380;28;20539;-82
2020/12/13 06:36:41;;;;;;;4.77;4.43;;;;;;;;;;4959495;28;20197;-82
2020/12/13 06:39:15;;;;;;;5.30;4.90;;;;;;;;;;4974946;28;20197;-82
2020/12/13 06:41:46;;;;;;;4.63;4.33;;;;;;;;;;4978394;28;20236;-81
2020/12/13 06:44:13;;;;;;;4.47;4.17;;;;;;;;;;4976075;28;20203;-81
2020/12/13 06:46:42;;;;;;;4.57;4.27;;;;;;;;;;4969532;28;20701;-81
2020/12/13 06:49:09;;;;;;;4.90;4.50;;;;;;;;;;4978259;28;20211;-82
2020/12/13 06:51:36;;;;;;;5.70;4.53;;;;;;;;;;4978393;28;20260;-81
2020/12/13 06:54:04;;;;;;;4.70;4.40;;;;;;;;;;4978297;28;20246;-81
2020/12/13 06:56:31;;;;;;;4.70;4.37;;;;;;;;;;4977508;28;20687;-81
2020/12/13 06:59:01;;;;;;;5.30;4.90;;;;;;;;;;4976420;28;20192;-82
2020/12/13 07:01:28;;;;;;;5.20;4.80;;;;;;;;;;4978484;28;20203;-82
2020/12/13 07:03:57;;;;;;;5.47;5.07;;;;;;;;;;4978220;28;20180;-81
2020/12/13 07:06:26;;;;;;;5.20;4.80;;;;;;;;;;4977585;28;20180;-82
2020/12/13 07:08:58;;;;;;;5.43;5.03;;;;;;;;;;4976689;28;20702;-82
2020/12/13 07:11:27;;;;;;;5.73;5.23;;;;;;;;;;4977995;28;20182;-82
2020/12/13 07:14:02;;;;;;;4.83;4.53;;;;;;;;;;4976883;28;20187;-82
2020/12/13 07:16:32;;;;;;;5.00;4.70;;;;;;;;;;4970099;28;20192;-82
2020/12/13 07:19:16;;;;;;;4.60;4.20;;;;;;;;;;4959772;28;20193;-82
2020/12/13 07:21:44;;;;;;;4.83;4.43;;;;;;;;;;4960582;28;20205;-82
2020/12/13 07:24:11;;;;;;;4.73;4.43;;;;;;;;;;4977144;28;20181;-82
2020/12/13 07:26:38;;;;;;;4.80;4.50;;;;;;;;;;4978460;28;20176;-82
2020/12/13 07:29:05;;;;;;;4.70;4.40;;;;;;;;;;4970847;28;20667;-82
2020/12/13 07:31:35;;;;;;;4.40;4.10;;;;;;;;;;4979768;28;20181;-82
2020/12/13 07:34:02;;;;;;;4.80;4.40;;;;;;;;;;4977764;28;20240;-82
2020/12/13 07:36:29;;;;;;;4.90;4.60;;;;;;;;;;4979408;28;20204;-82
2020/12/13 07:38:55;;;;;;;4.80;4.50;;;;;;;;;;4979015;28;20279;-82
2020/12/13 07:41:22;;;;;;;5.43;5.03;;;;;;;;;;4964789;28;20200;-81
2020/12/13 07:43:59;;;;;;;5.23;4.87;;;;;;;;;;4960129;28;20230;-82
2020/12/13 07:46:26;;;;;;;5.70;5.30;;;;;;;;;;4964701;28;20255;-82
2020/12/13 07:49:22;;;;;;;5.20;4.90;;;;;;;;;;4979068;28;20567;-82
2020/12/13 07:51:49;;;;;;;6.50;6.00;;;;;;;;;;4969879;28;20188;-82
2020/12/13 07:54:20;;;;;;;5.50;5.10;;;;;;;;;;4976281;28;20177;-82
2020/12/13 07:56:47;;;;;;;5.83;5.43;;;;;;;;;;4967570;28;20202;-81
2020/12/13 07:59:19;;;;;;;6.03;5.53;;;;;;;;;;4952646;28;20235;-82
2020/12/13 08:01:47;;;;;;;4.80;4.50;;;;;;;;;;4955162;28;20183;-82
2020/12/13 08:04:14;;;;;;;5.70;5.07;;;;;;;;;;4977039;28;20173;-81
2020/12/13 08:06:40;;;;;;;5.23;4.83;;;;;;;;;;4964098;28;20191;-82
2020/12/13 08:09:07;;;;;;;5.90;5.50;;;;;;;;;;4966544;28;20259;-82
2020/12/13 08:11:34;;;;;;;5.23;4.93;;;;;;;;;;4978348;28;20584;-82
2020/12/13 08:14:00;;;;;;;6.10;5.60;;;;;;;;;;4976577;28;20212;-80
2020/12/13 08:16:26;;;;;;;5.63;5.23;;;;;;;;;;4976608;28;20200;-82
2020/12/13 08:18:54;;;;;;;6.00;5.57;;;;;;;;;;4977262;28;20264;-81
2020/12/13 08:21:38;;;;;;;6.10;5.70;;;;;;;;;;4976199;28;20224;-82
2020/12/13 08:24:04;;;;;;;6.93;6.33;;;;;;;;;;4969682;28;20190;-82
2020/12/13 08:26:31;;;;;;;6.73;6.23;;;;;;;;;;4975496;28;20219;-81
2020/12/13 08:29:00;;;;;;;6.57;5.97;;;;;;;;;;4977299;28;20212;-81
2020/12/13 08:31:28;;;;;;;5.00;4.70;;;;;;;;;;4975873;28;20174;-81
2020/12/13 08:34:01;;;;;;;4.70;4.30;;;;;;;;;;4977148;28;20639;-81
2020/12/13 08:36:27;;;;;;;4.60;4.20;;;;;;;;;;4975342;28;20330;-82
2020/12/13 08:39:04;;;;;;;4.20;3.90;;;;;;;;;;4976791;28;20693;-82
2020/12/13 08:41:30;;;;;;;4.10;3.70;;;;;;;;;;4964333;28;20196;-82
2020/12/13 08:43:57;;;;;;;3.60;3.40;;;;;;;;;;4975628;28;20179;-82
2020/12/13 08:46:33;;;;;;;4.07;3.70;;;;;;;;;;4968380;28;20304;-81
2020/12/13 08:48:59;;;;;;;4.30;3.73;;;;;;;;;;4976850;28;20200;-82
2020/12/13 08:51:27;;;;;;;4.47;3.97;;;;;;;;;;4963567;28;20271;-81
2020/12/13 08:54:03;;;;;;;4.07;3.67;;;;;;;;;;4967761;28;20650;-82
2020/12/13 08:56:39;;;;;;;3.30;3.00;;;;;;;;;;4974953;28;20199;-81
2020/12/13 08:59:07;;;;;;;5.17;3.30;;;;;;;;;;4959137;28;20196;-81
2020/12/13 09:01:36;;;;;;;3.03;2.70;;;;;;;;;;4974891;28;20224;-82
2020/12/13 09:04:16;;;;;;;3.20;2.90;;;;;;;;;;4974959;28;20269;-81
2020/12/13 09:06:51;;;;;;;3.80;3.50;;;;;;;;;;4975835;28;20184;-82
2020/12/13 09:09:18;;;;;;;6.17;3.00;;;;;;;;;;4976433;28;20192;-82
2020/12/13 09:11:45;;;;;;;3.07;2.60;;;;;;;;;;4976668;28;20570;-81
2020/12/13 09:14:11;;;;;;;3.73;2.47;;;;;;;;;;4969177;28;20202;-82
2020/12/13 09:16:38;;;;;;;2.87;2.27;;;;;;;;;;4955373;28;20210;-81
2020/12/13 09:19:11;;;;;;;3.83;2.40;;;;;;;;;;4957617;28;20754;-81
2020/12/13 09:21:57;;;;;;;3.50;2.30;;;;;;;;;;4955527;28;20732;-82
2020/12/13 09:24:27;;;;;;;4.03;2.50;;;;;;;;;;4955724;28;20212;-82
2020/12/13 09:27:18;;;;;;;3.37;2.10;;;;;;;;;;4955559;28;20181;-81
2020/12/13 09:29:44;;;;;;;3.87;2.33;;;;;;;;;;4956836;28;20295;-82
2020/12/13 09:32:10;;;;;;;2.67;2.30;;;;;;;;;;4976030;28;20560;-81
2020/12/13 09:34:38;;;;;;;2.53;2.20;;;;;;;;;;4976086;28;20332;-81
2020/12/13 09:37:04;;;;;;;3.60;1.87;;;;;;;;;;4975798;28;20200;-81
2020/12/13 09:39:31;;;;;;;3.63;2.13;;;;;;;;;;4974679;28;20201;-81
2020/12/13 09:41:57;;;;;;;2.70;2.23;;;;;;;;;;4974508;28;20177;-82
2020/12/13 09:44:23;;;;;;;2.33;2.00;;;;;;;;;;4975669;28;20176;-82
2020/12/13 09:47:00;;;;;;;2.77;1.97;;;;;;;;;;4966012;28;20239;-81
2020/12/13 09:49:26;;;;;;;4.87;2.20;;;;;;;;;;4975789;28;20206;-82
2020/12/13 09:52:00;;;;;;;3.40;1.87;;;;;;;;;;4975677;28;20184;-82
2020/12/13 09:54:27;;;;;;;5.10;2.10;;;;;;;;;;4975557;28;20207;-82
2020/12/13 09:56:53;;;;;;;4.00;1.73;;;;;;;;;;4974247;28;20201;-82
2020/12/13 09:59:20;;;;;;;3.63;1.70;;;;;;;;;;4975427;28;20742;-82
2020/12/13 10:01:46;;;;;;;3.93;1.80;;;;;;;;;;4973987;28;20178;-81
2020/12/13 10:04:13;;;;;;;2.43;1.57;;;;;;;;;;4975497;28;20184;-81
2020/12/13 10:09:24;;;;;;;2.87;1.30;;;;;;;;;;4975618;28;20223;-82
2020/12/13 10:11:50;;;;;;;3.10;1.80;;;;;;;;;;4975446;28;20184;-82
2020/12/13 10:14:16;;;;;;;5.03;1.80;;;;;;;;;;4976335;28;20239;-82
2020/12/13 10:16:43;;;;;;;4.00;1.63;;;;;;;;;;4975991;28;20205;-82
2020/12/13 10:19:10;;;;;;;1.70;1.50;;;;;;;;;;4977323;28;20236;-82
2020/12/13 10:21:36;;;;;;;2.33;1.30;;;;;;;;;;4979337;28;20205;-82
2020/12/13 10:24:04;;;;;;;3.10;1.40;;;;;;;;;;4978872;28;20171;-82
2020/12/13 10:26:32;;;;;;;3.63;1.43;;;;;;;;;;4980237;28;20190;-82
2020/12/13 10:28:58;;;;;;;1.77;1.27;;;;;;;;;;4964738;28;20212;-82
2020/12/13 10:31:31;;;;;;;3.67;1.47;;;;;;;;;;4970074;28;20179;-82
2020/12/13 10:33:58;;;;;;;2.23;1.33;;;;;;;;;;4963459;28;20178;-80
2020/12/13 10:36:25;;;;;;;2.60;1.10;;;;;;;;;;4965706;28;20263;-82
2020/12/13 10:38:54;;;;;;;3.80;1.10;;;;;;;;;;4973459;28;20608;-82
2020/12/13 10:41:21;;;;;;;2.70;1.60;;;;;;;;;;4979826;28;20173;-82
2020/12/13 10:43:48;;;;;;;3.87;1.37;;;;;;;;;;4979740;28;20188;-81
2020/12/13 10:46:15;;;;;;;2.50;1.00;;;;;;;;;;4971763;28;20677;-82
2020/12/13 10:48:41;;;;;;;2.63;1.30;;;;;;;;;;4979260;28;20203;-81
2020/12/13 10:51:07;;;;;;;3.17;1.07;;;;;;;;;;4980015;28;20640;-82
2020/12/13 10:53:34;;;;;;;3.93;1.60;;;;;;;;;;4980816;28;20574;-83
2020/12/13 10:56:00;;;;;;;2.27;1.37;;;;;;;;;;4980178;28;20205;-82
2020/12/13 10:58:26;;;;;;;2.27;0.90;;;;;;;;;;4980301;28;20540;-82
2020/12/13 11:00:52;;;;;;;1.40;1.10;;;;;;;;;;4980378;28;20188;-82
2020/12/13 11:03:18;;;;;;;1.10;0.90;;;;;;;;;;4979260;28;20173;-81
2020/12/13 11:05:45;;;;;;;2.40;0.90;;;;;;;;;;4978996;28;20645;-82
2020/12/13 11:08:12;;;;;;;2.33;0.90;;;;;;;;;;4979286;28;20211;-81
2020/12/13 11:10:38;;;;;;;1.73;0.80;;;;;;;;;;4979333;28;20229;-81
2020/12/13 11:13:04;;;;;;;2.00;0.90;;;;;;;;;;4977426;28;20215;-80
2020/12/13 11:15:30;;;;;;;1.23;0.67;;;;;;;;;;4977322;28;20545;-81
2020/12/13 11:17:56;;;;;;;2.37;0.83;;;;;;;;;;4978687;28;20241;-81
2020/12/13 11:20:22;;;;;;;0.90;0.80;;;;;;;;;;4979129;28;20251;-82
2020/12/13 11:22:48;;;;;;;1.00;0.80;;;;;;;;;;4978004;28;20177;-81
2020/12/13 11:25:16;;;;;;;1.33;0.80;;;;;;;;;;4978846;28;20179;-81
2020/12/13 11:27:42;;;;;;;2.03;1.07;;;;;;;;;;4976085;28;20205;-81
2020/12/13 11:30:10;;;;;;;4.57;1.00;;;;;;;;;;4973798;28;20197;-82
2020/12/13 11:32:36;;;;;;;2.67;0.90;;;;;;;;;;4982014;28;20649;-82
2020/12/13 11:35:03;;;;;;;1.03;0.63;;;;;;;;;;4981228;28;20205;-82
2020/12/13 11:37:29;;;;;;;2.37;0.90;;;;;;;;;;4979063;28;20230;-82
2020/12/13 11:39:57;;;;;;;2.03;0.80;;;;;;;;;;4980454;28;20198;-82
2020/12/13 11:42:23;;;;;;;2.77;1.10;;;;;;;;;;4979636;28;20184;-82
2020/12/13 11:44:49;;;;;;;2.87;0.93;;;;;;;;;;4975667;28;20598;-82
2020/12/13 11:47:15;;;;;;;2.33;1.20;;;;;;;;;;4973975;28;20273;-82
2020/12/13 11:49:41;;;;;;;3.93;1.37;;;;;;;;;;4979550;28;20206;-81
2020/12/13 11:52:07;;;;;;;2.60;1.00;;;;;;;;;;4979215;28;20176;-82
2020/12/13 11:54:33;;;;;;;1.30;0.93;;;;;;;;;;4979003;28;20177;-82
2020/12/13 11:57:00;;;;;;;0.97;0.60;;;;;;;;;;4978976;28;20203;-81
2020/12/13 11:59:28;;;;;;;1.60;0.83;;;;;;;;;;4979026;28;20255;-82
2020/12/13 12:01:54;;;;;;;2.23;1.10;;;;;;;;;;4978456;28;20198;-81
2020/12/13 12:04:20;;;;;;;2.70;0.80;;;;;;;;;;4977027;28;20212;-81
2020/12/13 12:06:47;;;;;;;1.87;0.77;;;;;;;;;;4976767;28;20172;-81
2020/12/13 12:09:13;;;;;;;2.40;0.77;;;;;;;;;;4978078;28;20725;-81
2020/12/13 12:11:40;;;;;;;1.03;0.70;;;;;;;;;;4977019;28;20750;-81
2020/12/13 12:14:10;;;;;;;1.20;0.50;;;;;;;;;;4978062;28;20324;-81
2020/12/13 12:16:36;;;;;;;2.57;0.90;;;;;;;;;;4977708;28;20228;-81
2020/12/13 12:19:02;;;;;;;2.17;0.93;;;;;;;;;;4976531;28;20570;-81
2020/12/13 12:21:29;;;;;;;1.73;1.07;;;;;;;;;;4976546;28;20192;-81
2020/12/13 12:23:55;;;;;;;0.90;0.60;;;;;;;;;;4974481;28;20221;-81
2020/12/13 12:26:22;;;;;;;1.70;0.97;;;;;;;;;;4968102;28;20176;-81
2020/12/13 12:28:49;;;;;;;1.43;1.23;;;;;;;;;;4976914;28;20205;-81
2020/12/13 12:31:21;;;;;;;2.43;0.80;;;;;;;;;;4977436;28;20252;-81
2020/12/13 12:33:47;;;;;;;6.30;3.90;;;;;;;;;;4974748;28;20177;-79
2020/12/13 12:36:17;;;;;;;2.60;0.97;;;;;;;;;;4975394;28;20170;-80
2020/12/13 12:38:43;;;;;;;2.63;0.80;;;;;;;;;;4968034;28;20207;-79
2020/12/13 12:41:13;;;;;;;1.50;0.80;;;;;;;;;;4976004;28;20179;-80
2020/12/13 12:43:40;;;;;;;2.10;1.57;;;;;;;;;;4975497;28;20185;-80
2020/12/13 12:46:06;;;;;;;3.60;1.10;;;;;;;;;;4968671;28;20177;-80
2020/12/13 12:48:33;;;;;;;10.93;6.60;;;;;;;;;;4976556;28;20564;-80
2020/12/13 12:51:01;;;;;;;4.40;2.80;;;;;;;;;;4977043;28;20251;-81
2020/12/13 12:53:27;;;;;;;2.57;1.13;;;;;;;;;;4976855;28;20176;-81
2020/12/13 12:55:53;;;;;;;2.40;1.53;;;;;;;;;;4977004;28;20183;-81
2020/12/13 12:58:20;;;;;;;8.57;4.80;;;;;;;;;;4976792;28;20696;-80
2020/12/13 13:00:51;;;;;;;3.27;2.30;;;;;;;;;;4977017;28;20205;-80
2020/12/13 13:03:17;;;;;;;4.57;2.77;;;;;;;;;;4977000;28;20621;-80
2020/12/13 13:11:02;;;;;;;3.27;2.57;;;;;;;;;;4976486;28;20191;-79
2020/12/13 13:13:29;;;;;;;3.87;1.83;;;;;;;;;;4976349;28;20651;-80
2020/12/13 13:15:58;;;;;;;8.93;8.03;;;;;;;;;;4976628;28;20186;-79
2020/12/13 13:18:28;;;;;;;2.37;1.33;;;;;;;;;;4976855;28;20222;-80
2020/12/13 13:20:56;;;;;;;3.10;2.00;;;;;;;;;;4976712;28;20220;-80
2020/12/13 13:23:25;;;;;;;1.50;1.33;;;;;;;;;;4976519;28;20332;-80
2020/12/13 13:25:51;;;;;;;2.60;1.43;;;;;;;;;;4976408;28;20176;-79
2020/12/13 13:28:17;;;;;;;2.23;1.70;;;;;;;;;;4976413;28;20621;-80
2020/12/13 13:30:43;;;;;;;1.40;1.00;;;;;;;;;;4976192;28;20589;-80
2020/12/13 13:33:09;;;;;;;3.00;1.20;;;;;;;;;;4966247;28;20175;-80
2020/12/13 13:35:35;;;;;;;2.00;1.30;;;;;;;;;;4971798;28;20188;-80
2020/12/13 13:38:02;;;;;;;2.00;1.37;;;;;;;;;;4976282;28;20245;-80
2020/12/13 13:40:29;;;;;;;2.13;1.20;;;;;;;;;;4968203;28;20182;-79
2020/12/13 13:43:01;;;;;;;1.23;0.97;;;;;;;;;;4962663;28;20180;-79
2020/12/13 13:48:11;;;;;;;1.53;1.30;;;;;;;;;;4974820;28;20204;-80
2020/12/13 13:50:43;;;;;;;1.03;0.83;;;;;;;;;;4975998;28;20688;-79
2020/12/13 13:53:12;;;;;;;2.07;0.83;;;;;;;;;;4976461;28;20196;-80
2020/12/13 13:55:44;;;;;;;1.53;0.90;;;;;;;;;;4979878;28;20208;-79
2020/12/13 13:58:11;;;;;;;2.37;1.07;;;;;;;;;;4978058;28;20216;-80
2020/12/13 14:00:37;;;;;;;2.53;1.17;;;;;;;;;;4978470;28;20177;-80
2020/12/13 14:03:03;;;;;;;1.03;0.93;;;;;;;;;;4980024;28;20179;-80
2020/12/13 14:05:36;;;;;;;2.87;1.40;;;;;;;;;;4979429;28;20238;-80
2020/12/13 14:10:30;;;;;;;5.13;1.00;;;;;;;;;;4979601;28;20247;-80
2020/12/13 14:12:56;;;;;;;3.63;1.30;;;;;;;;;;4979872;28;20184;-80
2020/12/13 14:15:23;;;;;;;1.60;1.00;;;;;;;;;;4976810;28;20262;-80
2020/12/13 14:17:49;;;;;;;2.07;1.23;;;;;;;;;;4960470;28;20247;-80
2020/12/13 14:20:15;;;;;;;5.63;1.47;;;;;;;;;;4959020;28;20196;-80
2020/12/13 14:22:41;;;;;;;2.43;1.17;;;;;;;;;;4967260;28;20208;-80
2020/12/13 14:25:07;;;;;;;4.13;1.93;;;;;;;;;;4977955;28;20546;-79
2020/12/13 14:27:33;;;;;;;3.37;1.63;;;;;;;;;;4978001;28;20264;-81
2020/12/13 14:29:59;;;;;;;4.60;1.77;;;;;;;;;;4978960;28;20191;-80
2020/12/13 14:32:25;;;;;;;3.27;1.23;;;;;;;;;;4975929;28;20186;-79
2020/12/13 14:34:52;;;;;;;6.43;2.07;;;;;;;;;;4959907;28;20216;-80
2020/12/13 14:37:18;;;;;;;4.57;1.87;;;;;;;;;;4962498;28;20209;-79
2020/12/13 14:39:44;;;;;;;3.50;1.67;;;;;;;;;;4980888;28;20193;-80
2020/12/13 14:42:11;;;;;;;3.73;1.40;;;;;;;;;;4980182;28;20697;-81
2020/12/13 14:44:37;;;;;;;4.53;1.83;;;;;;;;;;4960789;28;20183;-81
2020/12/13 14:47:03;;;;;;;3.67;1.43;;;;;;;;;;4971895;28;20238;-80
2020/12/13 14:49:29;;;;;;;5.30;1.30;;;;;;;;;;4979471;28;20207;-80
2020/12/13 14:51:55;;;;;;;3.80;1.30;;;;;;;;;;4979399;28;20584;-80
2020/12/13 14:54:22;;;;;;;4.10;1.70;;;;;;;;;;4979782;28;20176;-80
2020/12/13 14:56:48;;;;;;;2.60;1.80;;;;;;;;;;4971541;28;20714;-80